Metar Aviation Weather Data LFTW Nîmes-Arles-Camargue

7°C Temp
1°C Dewpoint
66% Humidity
Temperature
8 KM/H
5 MPH
4 KTS
20°
North North
East

Wind Speed
Clear
Conditions
Pressure 1014.92 (hPa) - 29.97 (in)
Visibility 6.2 (mi) - 10.0 (km)

Current Conditions
LFTW
Nîmes-Arles-Camargue
Metar :LFTW 171930Z AUTO 02004KT 320V060 CAVOK 07/01 Q1015
Thu 17th January 20:30 pm

Nîmes-Arles-Camargue
  Metar Aviation API Data Provided by https://www.checkwx.com/ PHP scripts by weather34.com ©2019